sensor_id;sensor_type;location;lat;lon;timestamp;pressure;altitude;pressure_sealevel;temperature;humidity
11172;BME280;5642;50.830;12.082;2023-04-21T08:21:37;99286.59;;;35.77;31.67
11172;BME280;5642;50.830;12.082;2023-04-21T08:24:04;99272.66;;;36.11;31.10
11172;BME280;5642;50.830;12.082;2023-04-21T08:26:30;99281.84;;;36.30;30.70
11172;BME280;5642;50.830;12.082;2023-04-21T08:29:02;99280.81;;;36.31;30.59
11172;BME280;5642;50.830;12.082;2023-04-21T08:31:30;99275.38;;;36.18;31.05
11172;BME280;5642;50.830;12.082;2023-04-21T08:33:56;99287.75;;;36.20;31.10
11172;BME280;5642;50.830;12.082;2023-04-21T08:36:22;99276.53;;;35.77;30.42
11172;BME280;5642;50.830;12.082;2023-04-21T08:38:49;99275.50;;;35.19;30.38
11172;BME280;5642;50.830;12.082;2023-04-21T08:41:15;99270.69;;;34.88;30.34
11172;BME280;5642;50.830;12.082;2023-04-21T08:43:41;99282.31;;;34.55;30.41
11172;BME280;5642;50.830;12.082;2023-04-21T08:46:08;99283.72;;;34.32;30.64
11172;BME280;5642;50.830;12.082;2023-04-21T08:48:36;99274.09;;;34.29;30.31
11172;BME280;5642;50.830;12.082;2023-04-21T08:51:06;99275.84;;;34.09;30.58
11172;BME280;5642;50.830;12.082;2023-04-21T08:53:35;99279.59;;;34.01;30.38
11172;BME280;5642;50.830;12.082;2023-04-21T08:56:02;99266.22;;;34.06;30.43
11172;BME280;5642;50.830;12.082;2023-04-21T08:58:29;99273.72;;;34.45;30.36
11172;BME280;5642;50.830;12.082;2023-04-21T09:00:56;99279.81;;;34.61;29.67
11172;BME280;5642;50.830;12.082;2023-04-21T09:03:27;99288.97;;;34.46;29.63
11172;BME280;5642;50.830;12.082;2023-04-21T09:06:03;99253.28;;;34.08;29.42
11172;BME280;5642;50.830;12.082;2023-04-21T09:08:42;99227.94;;;33.60;29.42
11172;BME280;5642;50.830;12.082;2023-04-21T09:11:13;99240.28;;;33.35;29.14
11172;BME280;5642;50.830;12.082;2023-04-21T09:13:43;99238.50;;;33.21;29.31
11172;BME280;5642;50.830;12.082;2023-04-21T09:16:19;99266.41;;;33.15;29.19
11172;BME280;5642;50.830;12.082;2023-04-21T09:18:49;99230.44;;;33.06;29.03
11172;BME280;5642;50.830;12.082;2023-04-21T09:21:17;99247.03;;;33.18;29.45
11172;BME280;5642;50.830;12.082;2023-04-21T09:23:49;99269.00;;;33.51;29.16
11172;BME280;5642;50.830;12.082;2023-04-21T09:26:18;99246.06;;;33.53;29.07
11172;BME280;5642;50.830;12.082;2023-04-21T09:28:47;99252.28;;;33.75;29.03
11172;BME280;5642;50.830;12.082;2023-04-21T09:31:22;99265.69;;;33.83;29.20
11172;BME280;5642;50.830;12.082;2023-04-21T09:33:57;99264.81;;;33.76;28.91
11172;BME280;5642;50.830;12.082;2023-04-21T09:36:28;99256.34;;;33.64;28.83
11172;BME280;5642;50.830;12.082;2023-04-21T09:39:02;99267.84;;;33.60;29.19
11172;BME280;5642;50.830;12.082;2023-04-21T09:41:32;99242.47;;;33.46;29.33
11172;BME280;5642;50.830;12.082;2023-04-21T09:43:59;99251.09;;;33.28;28.93
11172;BME280;5642;50.830;12.082;2023-04-21T09:46:34;99232.06;;;33.22;28.69
11172;BME280;5642;50.830;12.082;2023-04-21T09:49:00;99251.09;;;33.56;28.72
11172;BME280;5642;50.830;12.082;2023-04-21T09:51:28;99219.94;;;33.52;29.29
11172;BME280;5642;50.830;12.082;2023-04-21T09:56:48;99248.41;;;34.04;28.89
11172;BME280;5642;50.830;12.082;2023-04-21T09:59:18;99222.22;;;33.83;28.99
11172;BME280;5642;50.830;12.082;2023-04-21T10:01:48;99241.91;;;33.92;28.72
11172;BME280;5642;50.830;12.082;2023-04-21T10:04:20;99230.63;;;33.88;29.04
11172;BME280;5642;50.830;12.082;2023-04-21T10:06:48;99245.28;;;34.00;28.95
11172;BME280;5642;50.830;12.082;2023-04-21T10:09:17;99220.59;;;33.95;28.81
11172;BME280;5642;50.830;12.082;2023-04-21T10:11:54;99246.56;;;34.11;28.33
11172;BME280;5642;50.830;12.082;2023-04-21T10:14:24;99202.81;;;33.93;28.62
11172;BME280;5642;50.830;12.082;2023-04-21T10:17:09;99223.31;;;33.89;28.61
11172;BME280;5642;50.830;12.082;2023-04-21T10:19:37;99234.56;;;33.86;28.53
11172;BME280;5642;50.830;12.082;2023-04-21T10:22:24;99231.47;;;33.61;29.15
11172;BME280;5642;50.830;12.082;2023-04-21T10:24:54;99226.09;;;33.39;28.78
11172;BME280;5642;50.830;12.082;2023-04-21T10:27:39;99234.66;;;32.87;28.28
11172;BME280;5642;50.830;12.082;2023-04-21T10:30:30;99224.16;;;32.42;28.50
11172;BME280;5642;50.830;12.082;2023-04-21T10:33:05;99228.75;;;32.41;28.82
11172;BME280;5642;50.830;12.082;2023-04-21T10:36:02;99235.03;;;32.63;28.51
11172;BME280;5642;50.830;12.082;2023-04-21T10:38:35;99229.72;;;32.55;28.97
11172;BME280;5642;50.830;12.082;2023-04-21T10:44:14;99228.19;;;32.67;28.25
11172;BME280;5642;50.830;12.082;2023-04-21T10:46:48;99217.53;;;32.65;28.14
11172;BME280;5642;50.830;12.082;2023-04-21T10:49:25;99223.09;;;32.79;28.22
11172;BME280;5642;50.830;12.082;2023-04-21T10:57:18;99183.91;;;32.81;28.03
11172;BME280;5642;50.830;12.082;2023-04-21T10:59:47;99208.34;;;32.81;28.15
11172;BME280;5642;50.830;12.082;2023-04-21T11:02:16;99188.88;;;32.78;28.16
11172;BME280;5642;50.830;12.082;2023-04-21T11:04:43;99186.56;;;32.53;28.09
11172;BME280;5642;50.830;12.082;2023-04-21T11:07:14;99207.78;;;32.50;27.96
11172;BME280;5642;50.830;12.082;2023-04-21T11:09:46;99178.84;;;32.14;27.94
11172;BME280;5642;50.830;12.082;2023-04-21T11:12:17;99215.19;;;32.20;28.01
11172;BME280;5642;50.830;12.082;2023-04-21T11:14:45;99214.94;;;31.85;28.04
11172;BME280;5642;50.830;12.082;2023-04-21T11:17:18;99213.44;;;31.39;28.00
11172;BME280;5642;50.830;12.082;2023-04-21T11:19:47;99218.28;;;30.91;28.02
11172;BME280;5642;50.830;12.082;2023-04-21T11:22:16;99199.53;;;30.44;28.28
11172;BME280;5642;50.830;12.082;2023-04-21T11:24:48;99207.00;;;30.19;28.42
11172;BME280;5642;50.830;12.082;2023-04-21T11:27:21;99198.84;;;29.96;27.95
11172;BME280;5642;50.830;12.082;2023-04-21T11:29:49;99175.16;;;29.68;28.29
11172;BME280;5642;50.830;12.082;2023-04-21T11:32:18;99162.22;;;29.55;28.22
11172;BME280;5642;50.830;12.082;2023-04-21T11:34:45;99164.94;;;29.55;27.81
11172;BME280;5642;50.830;12.082;2023-04-21T11:37:22;99195.75;;;29.69;27.69
11172;BME280;5642;50.830;12.082;2023-04-21T11:39:59;99169.88;;;29.35;27.50
11172;BME280;5642;50.830;12.082;2023-04-21T11:42:26;99192.28;;;29.28;27.01
11172;BME280;5642;50.830;12.082;2023-04-21T11:44:54;99168.59;;;28.74;26.75
11172;BME280;5642;50.830;12.082;2023-04-21T11:47:27;99189.22;;;28.09;26.89
11172;BME280;5642;50.830;12.082;2023-04-21T11:49:55;99202.94;;;27.48;26.85
11172;BME280;5642;50.830;12.082;2023-04-21T11:52:23;99160.75;;;26.71;27.10
11172;BME280;5642;50.830;12.082;2023-04-21T11:55:01;99200.00;;;26.28;27.35
11172;BME280;5642;50.830;12.082;2023-04-21T11:57:29;99190.00;;;25.76;27.31
11172;BME280;5642;50.830;12.082;2023-04-21T12:00:01;99194.97;;;25.33;27.22
11172;BME280;5642;50.830;12.082;2023-04-21T12:02:29;99176.03;;;24.88;27.35
11172;BME280;5642;50.830;12.082;2023-04-21T12:05:07;99179.59;;;24.60;27.25
11172;BME280;5642;50.830;12.082;2023-04-21T12:07:54;99171.41;;;24.23;27.56
11172;BME280;5642;50.830;12.082;2023-04-21T12:10:20;99189.25;;;24.03;27.36
11172;BME280;5642;50.830;12.082;2023-04-21T12:12:47;99167.97;;;23.73;27.72
11172;BME280;5642;50.830;12.082;2023-04-21T12:15:19;99158.47;;;23.59;27.50
11172;BME280;5642;50.830;12.082;2023-04-21T12:17:48;99176.34;;;23.49;27.70
11172;BME280;5642;50.830;12.082;2023-04-21T12:20:20;99167.56;;;23.47;27.63
11172;BME280;5642;50.830;12.082;2023-04-21T12:22:48;99189.50;;;23.41;27.78
11172;BME280;5642;50.830;12.082;2023-04-21T12:25:16;99194.66;;;23.33;27.76
11172;BME280;5642;50.830;12.082;2023-04-21T12:27:59;99174.06;;;23.24;27.70
11172;BME280;5642;50.830;12.082;2023-04-21T12:30:35;99166.28;;;23.11;28.02
11172;BME280;5642;50.830;12.082;2023-04-21T12:33:03;99139.13;;;23.06;27.70
11172;BME280;5642;50.830;12.082;2023-04-21T12:35:30;99171.69;;;23.21;27.83
11172;BME280;5642;50.830;12.082;2023-04-21T12:37:59;99168.03;;;23.22;27.88
11172;BME280;5642;50.830;12.082;2023-04-21T12:40:25;99175.06;;;23.23;27.75
11172;BME280;5642;50.830;12.082;2023-04-21T12:42:51;99173.94;;;23.25;27.91
11172;BME280;5642;50.830;12.082;2023-04-21T12:45:18;99159.59;;;23.26;27.76
11172;BME280;5642;50.830;12.082;2023-04-21T12:47:48;99158.50;;;23.29;27.60
11172;BME280;5642;50.830;12.082;2023-04-21T12:50:21;99149.75;;;23.27;27.75
11172;BME280;5642;50.830;12.082;2023-04-21T12:52:52;99161.72;;;23.23;27.90
11172;BME280;5642;50.830;12.082;2023-04-21T12:55:21;99154.81;;;23.20;28.02
11172;BME280;5642;50.830;12.082;2023-04-21T12:57:47;99161.00;;;23.21;27.91
11172;BME280;5642;50.830;12.082;2023-04-21T13:00:14;99150.69;;;23.16;27.92
11172;BME280;5642;50.830;12.082;2023-04-21T13:02:41;99173.44;;;23.11;27.79
11172;BME280;5642;50.830;12.082;2023-04-21T13:05:07;99156.31;;;23.13;27.86
11172;BME280;5642;50.830;12.082;2023-04-21T13:07:35;99148.72;;;23.09;27.94
11172;BME280;5642;50.830;12.082;2023-04-21T13:10:04;99170.22;;;23.07;27.89
11172;BME280;5642;50.830;12.082;2023-04-21T13:12:32;99153.47;;;23.05;27.80
11172;BME280;5642;50.830;12.082;2023-04-21T13:14:58;99149.50;;;22.99;27.99
11172;BME280;5642;50.830;12.082;2023-04-21T13:17:24;99128.50;;;22.95;27.95
11172;BME280;5642;50.830;12.082;2023-04-21T13:19:50;99128.66;;;22.93;27.96
11172;BME280;5642;50.830;12.082;2023-04-21T13:22:21;99127.69;;;22.94;28.08
11172;BME280;5642;50.830;12.082;2023-04-21T13:24:58;99130.63;;;22.91;28.04
11172;BME280;5642;50.830;12.082;2023-04-21T13:27:40;99096.69;;;22.82;28.04
11172;BME280;5642;50.830;12.082;2023-04-21T13:30:08;99114.19;;;22.96;28.01
11172;BME280;5642;50.830;12.082;2023-04-21T13:32:38;99129.66;;;23.02;28.02
11172;BME280;5642;50.830;12.082;2023-04-21T13:35:05;99128.25;;;22.98;27.90
11172;BME280;5642;50.830;12.082;2023-04-21T13:37:34;99118.44;;;22.98;27.84
11172;BME280;5642;50.830;12.082;2023-04-21T13:40:01;99111.81;;;22.93;27.93
11172;BME280;5642;50.830;12.082;2023-04-21T13:42:28;99096.75;;;22.92;28.09
11172;BME280;5642;50.830;12.082;2023-04-21T13:44:54;99090.44;;;22.93;28.28
11172;BME280;5642;50.830;12.082;2023-04-21T13:47:20;99094.38;;;22.98;27.97
11172;BME280;5642;50.830;12.082;2023-04-21T13:49:47;99100.03;;;23.05;28.06
11172;BME280;5642;50.830;12.082;2023-04-21T13:52:14;99087.41;;;23.07;28.23
11172;BME280;5642;50.830;12.082;2023-04-21T13:54:40;99079.94;;;23.11;28.04
11172;BME280;5642;50.830;12.082;2023-04-21T13:57:07;99089.53;;;23.13;28.18
11172;BME280;5642;50.830;12.082;2023-04-21T13:59:34;99100.94;;;23.15;28.03
11172;BME280;5642;50.830;12.082;2023-04-21T14:02:00;99083.75;;;23.08;27.92
11172;BME280;5642;50.830;12.082;2023-04-21T14:04:28;99080.06;;;22.99;27.87
11172;BME280;5642;50.830;12.082;2023-04-21T14:06:54;99092.44;;;23.00;27.99
11172;BME280;5642;50.830;12.082;2023-04-21T14:09:20;99079.09;;;23.00;27.83
11172;BME280;5642;50.830;12.082;2023-04-21T14:11:47;99069.25;;;23.01;28.01
11172;BME280;5642;50.830;12.082;2023-04-21T14:14:13;99076.13;;;23.03;28.39
11172;BME280;5642;50.830;12.082;2023-04-21T14:16:39;99085.81;;;23.04;28.09
11172;BME280;5642;50.830;12.082;2023-04-21T14:19:06;99067.00;;;23.06;27.92
11172;BME280;5642;50.830;12.082;2023-04-21T14:21:32;99054.19;;;23.00;28.19
11172;BME280;5642;50.830;12.082;2023-04-21T14:23:59;99059.06;;;22.95;28.17
11172;BME280;5642;50.830;12.082;2023-04-21T14:26:25;99075.16;;;23.04;28.07
11172;BME280;5642;50.830;12.082;2023-04-21T14:28:52;99059.97;;;23.05;28.02
11172;BME280;5642;50.830;12.082;2023-04-21T14:31:18;99056.56;;;23.03;27.97
11172;BME280;5642;50.830;12.082;2023-04-21T14:33:46;99069.69;;;23.06;28.11
11172;BME280;5642;50.830;12.082;2023-04-21T14:36:13;99052.50;;;22.99;28.12
11172;BME280;5642;50.830;12.082;2023-04-21T14:38:41;99055.03;;;23.00;28.03
11172;BME280;5642;50.830;12.082;2023-04-21T14:41:09;99064.28;;;22.96;28.13
11172;BME280;5642;50.830;12.082;2023-04-21T14:43:36;99043.59;;;22.89;28.19
11172;BME280;5642;50.830;12.082;2023-04-21T14:46:04;99042.44;;;22.82;28.33
11172;BME280;5642;50.830;12.082;2023-04-21T14:48:32;99036.41;;;22.80;28.37
11172;BME280;5642;50.830;12.082;2023-04-21T14:50:59;99031.31;;;22.77;28.41
11172;BME280;5642;50.830;12.082;2023-04-21T14:53:25;99050.97;;;22.76;28.43
11172;BME280;5642;50.830;12.082;2023-04-21T14:55:52;99044.81;;;22.75;28.45
11172;BME280;5642;50.830;12.082;2023-04-21T14:58:18;99047.72;;;22.72;28.43
11172;BME280;5642;50.830;12.082;2023-04-21T15:00:44;99047.25;;;22.67;28.36
11172;BME280;5642;50.830;12.082;2023-04-21T15:03:10;99045.59;;;22.66;28.57
11172;BME280;5642;50.830;12.082;2023-04-21T15:05:36;99033.03;;;22.57;28.62
11172;BME280;5642;50.830;12.082;2023-04-21T15:08:04;99033.59;;;22.60;28.56
11172;BME280;5642;50.830;12.082;2023-04-21T15:10:30;99037.41;;;22.67;28.68
11172;BME280;5642;50.830;12.082;2023-04-21T15:12:56;99038.28;;;22.68;28.61
11172;BME280;5642;50.830;12.082;2023-04-21T15:15:23;99035.88;;;22.65;28.67
11172;BME280;5642;50.830;12.082;2023-04-21T15:17:49;99037.59;;;22.66;28.59
11172;BME280;5642;50.830;12.082;2023-04-21T15:20:15;99023.94;;;22.69;28.69
11172;BME280;5642;50.830;12.082;2023-04-21T15:22:42;99022.75;;;22.73;28.69
11172;BME280;5642;50.830;12.082;2023-04-21T15:25:09;99020.78;;;22.75;28.49
11172;BME280;5642;50.830;12.082;2023-04-21T15:27:35;99013.72;;;22.74;28.73
11172;BME280;5642;50.830;12.082;2023-04-21T15:30:02;99015.88;;;22.80;28.57
11172;BME280;5642;50.830;12.082;2023-04-21T15:32:29;99020.69;;;22.86;28.66
11172;BME280;5642;50.830;12.082;2023-04-21T15:34:55;99001.81;;;22.78;28.51
11172;BME280;5642;50.830;12.082;2023-04-21T15:37:22;99007.34;;;22.86;28.50
11172;BME280;5642;50.830;12.082;2023-04-21T15:39:48;99009.16;;;22.86;28.56
11172;BME280;5642;50.830;12.082;2023-04-21T15:42:24;99001.09;;;22.76;28.50
11172;BME280;5642;50.830;12.082;2023-04-21T15:44:53;98989.25;;;22.69;28.72
11172;BME280;5642;50.830;12.082;2023-04-21T15:47:19;99003.06;;;22.74;28.63
11172;BME280;5642;50.830;12.082;2023-04-21T15:49:45;98999.19;;;22.67;28.78
11172;BME280;5642;50.830;12.082;2023-04-21T15:52:12;99014.25;;;22.68;28.72
11172;BME280;5642;50.830;12.082;2023-04-21T15:54:38;98996.63;;;22.56;28.76
11172;BME280;5642;50.830;12.082;2023-04-21T15:57:05;99008.59;;;22.61;28.69
11172;BME280;5642;50.830;12.082;2023-04-21T15:59:32;98991.00;;;22.49;28.71
11172;BME280;5642;50.830;12.082;2023-04-21T16:01:58;99003.78;;;22.55;28.92
11172;BME280;5642;50.830;12.082;2023-04-21T16:04:24;99012.22;;;22.51;28.88
11172;BME280;5642;50.830;12.082;2023-04-21T16:06:51;99006.28;;;22.47;29.15
11172;BME280;5642;50.830;12.082;2023-04-21T16:09:17;99001.22;;;22.44;28.97
11172;BME280;5642;50.830;12.082;2023-04-21T16:11:46;99000.63;;;22.41;28.84
11172;BME280;5642;50.830;12.082;2023-04-21T16:14:17;99012.41;;;22.38;28.93
11172;BME280;5642;50.830;12.082;2023-04-21T16:16:44;98999.47;;;22.34;29.08
11172;BME280;5642;50.830;12.082;2023-04-21T16:19:10;99011.25;;;22.31;29.05
11172;BME280;5642;50.830;12.082;2023-04-21T16:21:37;99008.84;;;22.28;29.07
11172;BME280;5642;50.830;12.082;2023-04-21T16:24:05;98996.16;;;22.20;29.14
11172;BME280;5642;50.830;12.082;2023-04-21T16:26:32;98995.44;;;22.18;29.25
11172;BME280;5642;50.830;12.082;2023-04-21T16:28:59;98981.53;;;22.15;29.30
11172;BME280;5642;50.830;12.082;2023-04-21T16:31:25;98994.28;;;22.11;29.16
11172;BME280;5642;50.830;12.082;2023-04-21T16:33:51;98983.75;;;22.10;29.23
11172;BME280;5642;50.830;12.082;2023-04-21T16:36:18;98998.94;;;22.09;29.34
11172;BME280;5642;50.830;12.082;2023-04-21T16:38:46;98994.81;;;22.05;29.46
11172;BME280;5642;50.830;12.082;2023-04-21T16:41:12;98992.53;;;22.01;29.25
11172;BME280;5642;50.830;12.082;2023-04-21T16:43:38;98995.34;;;21.99;29.31
11172;BME280;5642;50.830;12.082;2023-04-21T16:46:04;98999.09;;;21.97;29.25
11172;BME280;5642;50.830;12.082;2023-04-21T16:48:31;98997.66;;;21.93;29.29
11172;BME280;5642;50.830;12.082;2023-04-21T16:50:57;98991.59;;;21.91;29.29
11172;BME280;5642;50.830;12.082;2023-04-21T16:53:23;98990.16;;;21.86;29.53
11172;BME280;5642;50.830;12.082;2023-04-21T16:55:50;98989.69;;;21.81;29.51
11172;BME280;5642;50.830;12.082;2023-04-21T16:58:16;98990.81;;;21.79;29.34
11172;BME280;5642;50.830;12.082;2023-04-21T17:00:43;98993.03;;;21.74;29.65
11172;BME280;5642;50.830;12.082;2023-04-21T17:03:09;98986.38;;;21.68;29.67
11172;BME280;5642;50.830;12.082;2023-04-21T17:05:35;98994.88;;;21.62;29.84
11172;BME280;5642;50.830;12.082;2023-04-21T17:08:01;98998.66;;;21.60;29.86
11172;BME280;5642;50.830;12.082;2023-04-21T17:10:27;98997.34;;;21.54;29.77
11172;BME280;5642;50.830;12.082;2023-04-21T17:12:53;98991.53;;;21.49;29.58
11172;BME280;5642;50.830;12.082;2023-04-21T17:15:19;98995.56;;;21.43;29.85
11172;BME280;5642;50.830;12.082;2023-04-21T17:17:46;98997.91;;;21.37;29.89
11172;BME280;5642;50.830;12.082;2023-04-21T17:20:13;98983.03;;;21.23;29.66
11172;BME280;5642;50.830;12.082;2023-04-21T17:22:40;98992.72;;;21.24;29.38
11172;BME280;5642;50.830;12.082;2023-04-21T17:25:08;98983.41;;;21.19;29.79
11172;BME280;5642;50.830;12.082;2023-04-21T17:27:35;98972.16;;;21.04;29.87
11172;BME280;5642;50.830;12.082;2023-04-21T17:30:05;98964.94;;;20.95;29.83
11172;BME280;5642;50.830;12.082;2023-04-21T17:32:32;98975.44;;;20.96;30.09
11172;BME280;5642;50.830;12.082;2023-04-21T17:34:58;98982.84;;;20.93;29.97
11172;BME280;5642;50.830;12.082;2023-04-21T17:37:24;98975.00;;;20.80;30.07
11172;BME280;5642;50.830;12.082;2023-04-21T17:39:50;98974.75;;;20.72;30.14
11172;BME280;5642;50.830;12.082;2023-04-21T17:42:19;98981.16;;;20.69;30.01
11172;BME280;5642;50.830;12.082;2023-04-21T17:44:45;98973.91;;;20.60;29.90
11172;BME280;5642;50.830;12.082;2023-04-21T17:47:11;98974.66;;;20.51;30.01
11172;BME280;5642;50.830;12.082;2023-04-21T17:49:38;98974.16;;;20.46;30.34
11172;BME280;5642;50.830;12.082;2023-04-21T17:52:04;98980.91;;;20.39;30.20
11172;BME280;5642;50.830;12.082;2023-04-21T17:54:33;98986.84;;;20.31;30.43
11172;BME280;5642;50.830;12.082;2023-04-21T17:56:59;98985.72;;;20.23;30.49
11172;BME280;5642;50.830;12.082;2023-04-21T17:59:26;98988.13;;;20.15;30.65
11172;BME280;5642;50.830;12.082;2023-04-21T18:01:52;98986.44;;;20.03;30.53
11172;BME280;5642;50.830;12.082;2023-04-21T18:04:19;98994.84;;;19.97;30.40
11172;BME280;5642;50.830;12.082;2023-04-21T18:06:49;98995.78;;;19.84;30.56
11172;BME280;5642;50.830;12.082;2023-04-21T18:09:16;98986.84;;;19.74;30.55
11172;BME280;5642;50.830;12.082;2023-04-21T18:11:44;99001.28;;;19.70;30.56
11172;BME280;5642;50.830;12.082;2023-04-21T18:14:11;98990.84;;;19.56;30.96
11172;BME280;5642;50.830;12.082;2023-04-21T18:16:38;99006.06;;;19.54;30.67
11172;BME280;5642;50.830;12.082;2023-04-21T18:19:04;98998.53;;;19.48;30.91
11172;BME280;5642;50.830;12.082;2023-04-21T18:21:30;99000.78;;;19.41;30.77
11172;BME280;5642;50.830;12.082;2023-04-21T18:23:57;98998.94;;;19.31;30.88
11172;BME280;5642;50.830;12.082;2023-04-21T18:26:23;98993.09;;;19.26;30.91
11172;BME280;5642;50.830;12.082;2023-04-21T18:28:53;99000.91;;;19.16;30.87
11172;BME280;5642;50.830;12.082;2023-04-21T18:31:19;98996.25;;;19.07;30.80
11172;BME280;5642;50.830;12.082;2023-04-21T18:33:51;99005.63;;;19.00;31.03
11172;BME280;5642;50.830;12.082;2023-04-21T18:36:17;99011.97;;;18.97;31.39
11172;BME280;5642;50.830;12.082;2023-04-21T18:38:43;99010.03;;;18.88;30.90
11172;BME280;5642;50.830;12.082;2023-04-21T18:41:09;99009.38;;;18.85;31.06
11172;BME280;5642;50.830;12.082;2023-04-21T18:43:35;99014.28;;;18.78;31.19
11172;BME280;5642;50.830;12.082;2023-04-21T18:46:02;99013.13;;;18.69;31.17
11172;BME280;5642;50.830;12.082;2023-04-21T18:48:28;99006.53;;;18.62;31.28
11172;BME280;5642;50.830;12.082;2023-04-21T18:50:54;99015.78;;;18.57;31.27
11172;BME280;5642;50.830;12.082;2023-04-21T18:53:20;99016.19;;;18.51;31.37
11172;BME280;5642;50.830;12.082;2023-04-21T18:55:47;99018.44;;;18.44;31.37
11172;BME280;5642;50.830;12.082;2023-04-21T18:58:14;99016.41;;;18.35;31.40
11172;BME280;5642;50.830;12.082;2023-04-21T19:00:40;99024.69;;;18.30;31.47
11172;BME280;5642;50.830;12.082;2023-04-21T19:03:07;99018.22;;;18.22;31.40
11172;BME280;5642;50.830;12.082;2023-04-21T19:05:34;99020.00;;;18.21;31.49
11172;BME280;5642;50.830;12.082;2023-04-21T19:08:01;99016.00;;;18.16;31.58
11172;BME280;5642;50.830;12.082;2023-04-21T19:10:27;99011.00;;;18.11;31.64
11172;BME280;5642;50.830;12.082;2023-04-21T19:12:54;99014.91;;;18.06;31.56
11172;BME280;5642;50.830;12.082;2023-04-21T19:15:21;99014.28;;;18.02;31.75
11172;BME280;5642;50.830;12.082;2023-04-21T19:17:47;99020.72;;;17.98;31.75
11172;BME280;5642;50.830;12.082;2023-04-21T19:20:13;99019.25;;;17.94;31.77
11172;BME280;5642;50.830;12.082;2023-04-21T19:22:40;99015.75;;;17.93;31.96
11172;BME280;5642;50.830;12.082;2023-04-21T19:25:06;99022.84;;;17.93;31.81
11172;BME280;5642;50.830;12.082;2023-04-21T19:27:33;99016.06;;;17.89;31.67
11172;BME280;5642;50.830;12.082;2023-04-21T19:29:59;99018.72;;;17.89;31.83
11172;BME280;5642;50.830;12.082;2023-04-21T19:32:26;98978.19;;;17.62;31.86
11172;BME280;5642;50.830;12.082;2023-04-21T19:34:52;99021.22;;;17.78;31.91
11172;BME280;5642;50.830;12.082;2023-04-21T19:37:18;99021.22;;;17.78;31.95
11172;BME280;5642;50.830;12.082;2023-04-21T19:39:45;99014.53;;;17.72;31.90
11172;BME280;5642;50.830;12.082;2023-04-21T19:42:11;99024.28;;;17.72;31.91
11172;BME280;5642;50.830;12.082;2023-04-21T19:44:37;99028.84;;;17.70;32.01
11172;BME280;5642;50.830;12.082;2023-04-21T19:47:04;99024.50;;;17.69;31.87
11172;BME280;5642;50.830;12.082;2023-04-21T19:49:30;99030.09;;;17.64;31.97
11172;BME280;5642;50.830;12.082;2023-04-21T19:51:56;99027.53;;;17.63;31.89
11172;BME280;5642;50.830;12.082;2023-04-21T19:54:23;99006.50;;;17.47;31.98
11172;BME280;5642;50.830;12.082;2023-04-21T19:56:49;99031.41;;;17.57;32.04
11172;BME280;5642;50.830;12.082;2023-04-21T19:59:15;99023.97;;;17.49;31.99
11172;BME280;5642;50.830;12.082;2023-04-21T20:01:41;99019.53;;;17.50;32.02
11172;BME280;5642;50.830;12.082;2023-04-21T20:04:07;99017.28;;;17.44;32.17
11172;BME280;5642;50.830;12.082;2023-04-21T20:06:33;99025.31;;;17.42;32.15
11172;BME280;5642;50.830;12.082;2023-04-21T20:09:01;98999.56;;;17.32;32.29
11172;BME280;5642;50.830;12.082;2023-04-21T20:11:33;99019.50;;;17.37;32.10
11172;BME280;5642;50.830;12.082;2023-04-21T20:13:59;99018.19;;;17.30;32.27
11172;BME280;5642;50.830;12.082;2023-04-21T20:16:26;99002.06;;;17.20;32.28
11172;BME280;5642;50.830;12.082;2023-04-21T20:18:53;99020.00;;;17.30;32.15
11172;BME280;5642;50.830;12.082;2023-04-21T20:21:20;99018.28;;;17.29;32.24
11172;BME280;5642;50.830;12.082;2023-04-21T20:23:47;99025.38;;;17.28;32.36
11172;BME280;5642;50.830;12.082;2023-04-21T20:26:13;99024.84;;;17.23;32.41
11172;BME280;5642;50.830;12.082;2023-04-21T20:28:39;99030.03;;;17.25;32.40
11172;BME280;5642;50.830;12.082;2023-04-21T20:31:05;99028.91;;;17.14;32.33
11172;BME280;5642;50.830;12.082;2023-04-21T20:33:31;99044.44;;;17.06;32.43
11172;BME280;5642;50.830;12.082;2023-04-21T20:35:58;99030.84;;;16.84;32.60
11172;BME280;5642;50.830;12.082;2023-04-21T20:38:29;99041.44;;;16.70;32.73
11172;BME280;5642;50.830;12.082;2023-04-21T20:40:58;99044.28;;;16.53;33.11
11172;BME280;5642;50.830;12.082;2023-04-21T20:43:24;99041.31;;;16.29;33.23
11172;BME280;5642;50.830;12.082;2023-04-21T20:45:51;99050.16;;;16.14;33.25
11172;BME280;5642;50.830;12.082;2023-04-21T20:48:17;99049.41;;;15.97;33.32
11172;BME280;5642;50.830;12.082;2023-04-21T20:50:46;99056.50;;;15.81;33.53
11172;BME280;5642;50.830;12.082;2023-04-21T20:53:13;99058.41;;;15.63;33.65
11172;BME280;5642;50.830;12.082;2023-04-21T20:55:39;99067.22;;;15.48;33.66
11172;BME280;5642;50.830;12.082;2023-04-21T20:58:05;99060.16;;;15.33;33.82
11172;BME280;5642;50.830;12.082;2023-04-21T21:00:31;99078.44;;;15.20;33.92
11172;BME280;5642;50.830;12.082;2023-04-21T21:02:59;99061.84;;;15.03;33.99
11172;BME280;5642;50.830;12.082;2023-04-21T21:05:26;99066.69;;;14.95;33.97
11172;BME280;5642;50.830;12.082;2023-04-21T21:07:55;99071.84;;;14.80;34.11
11172;BME280;5642;50.830;12.082;2023-04-21T21:10:21;99062.22;;;14.64;34.14
11172;BME280;5642;50.830;12.082;2023-04-21T21:12:47;99077.59;;;14.56;34.22
11172;BME280;5642;50.830;12.082;2023-04-21T21:15:13;99066.09;;;14.41;34.47
11172;BME280;5642;50.830;12.082;2023-04-21T21:17:39;99090.00;;;14.36;34.37
11172;BME280;5642;50.830;12.082;2023-04-21T21:20:06;99088.84;;;14.25;34.53
11172;BME280;5642;50.830;12.082;2023-04-21T21:22:33;99085.94;;;14.14;34.56
11172;BME280;5642;50.830;12.082;2023-04-21T21:24:59;99092.72;;;14.00;34.49
11172;BME280;5642;50.830;12.082;2023-04-21T21:27:25;99081.09;;;13.87;34.49
11172;BME280;5642;50.830;12.082;2023-04-21T21:29:51;99094.75;;;13.78;34.92
11172;BME280;5642;50.830;12.082;2023-04-21T21:32:17;99087.22;;;13.70;34.97
11172;BME280;5642;50.830;12.082;2023-04-21T21:34:44;99086.69;;;13.64;34.83
11172;BME280;5642;50.830;12.082;2023-04-21T21:37:10;99088.81;;;13.56;34.72